Time;durP1;ratioP1;P1;durP2;ratioP2;P2;SDS_P1;SDS_P2;PMS_P1;PMS_P2;Temp;Humidity;BMP_temperature;BMP_pressure;BME280_temperature;BME280_humidity;BME280_pressure;Samples;Min_cycle;Max_cycle;Signal;HPM_P1;HPM_P2
2023/05/31 00:00:00;;;;;;;6.03;1.73;;;;;;;17.51;41.19;102400.97;5077486;28;20044;-39
2023/05/31 00:02:25;;;;;;;4.70;1.40;;;;;;;17.52;40.99;102393.84;5051132;28;20127;-40
2023/05/31 00:04:51;;;;;;;6.22;1.23;;;;;;;17.52;41.11;102399.16;5067810;28;20028;-42
2023/05/31 00:07:17;;;;;;;3.70;1.80;;;;;;;17.52;40.76;102399.16;5044337;28;20016;-40
2023/05/31 00:09:43;;;;;;;5.88;1.55;;;;;;;17.49;40.91;102388.69;5066924;28;20062;-39
2023/05/31 00:12:08;;;;;;;5.30;2.10;;;;;;;17.46;40.94;102402.22;5060860;28;20653;-40
2023/05/31 00:14:34;;;;;;;7.13;1.80;;;;;;;17.41;41.16;102404.28;5063226;28;20161;-41
2023/05/31 00:16:59;;;;;;;3.55;1.20;;;;;;;17.34;40.99;102401.97;5049649;28;20439;-39
2023/05/31 00:19:28;;;;;;;4.40;1.50;;;;;;;17.35;41.12;102403.69;5051237;28;20028;-39
2023/05/31 00:21:53;;;;;;;3.53;1.48;;;;;;;17.31;41.17;102406.63;5062516;28;20035;-40
2023/05/31 00:24:20;;;;;;;3.47;1.55;;;;;;;17.29;41.12;102420.06;5051009;28;20123;-39
2023/05/31 00:26:46;;;;;;;5.82;1.60;;;;;;;17.31;41.25;102407.50;5063879;28;20027;-38
2023/05/31 00:29:11;;;;;;;3.25;1.25;;;;;;;17.20;41.38;102415.25;5069702;28;20036;-40
2023/05/31 00:31:37;;;;;;;6.00;1.40;;;;;;;17.13;41.48;102413.91;5030916;28;20028;-38
2023/05/31 00:34:02;;;;;;;5.78;1.50;;;;;;;17.06;41.71;102408.94;5065456;28;20033;-40
2023/05/31 00:36:28;;;;;;;5.13;2.10;;;;;;;17.03;41.62;102409.13;5057459;28;20033;-45
2023/05/31 00:38:53;;;;;;;4.57;1.70;;;;;;;16.98;41.59;102405.91;5065258;28;20052;-41
2023/05/31 00:41:20;;;;;;;7.35;1.60;;;;;;;16.88;41.91;102407.34;5033321;28;20028;-40
2023/05/31 00:43:45;;;;;;;5.32;1.65;;;;;;;16.81;42.31;102403.34;5050497;28;20032;-40
2023/05/31 00:46:26;;;;;;;5.00;1.50;;;;;;;16.77;42.57;102406.16;5050757;28;20520;-42
2023/05/31 00:48:52;;;;;;;6.00;2.00;;;;;;;16.80;42.30;102396.31;5077466;28;20056;-39
2023/05/31 00:51:19;;;;;;;11.05;1.83;;;;;;;16.86;42.24;102401.28;5061699;28;20066;-39
2023/05/31 00:53:45;;;;;;;5.78;1.52;;;;;;;16.86;42.23;102401.28;5042443;28;20063;-39
2023/05/31 00:56:12;;;;;;;4.90;1.90;;;;;;;16.84;42.31;102403.16;5026162;28;20114;-39
2023/05/31 00:58:40;;;;;;;5.53;1.90;;;;;;;16.81;42.26;102406.00;5065233;28;20044;-39
2023/05/31 01:01:06;;;;;;;4.85;1.48;;;;;;;16.77;42.43;102403.50;5051196;28;20031;-40
2023/05/31 01:03:31;;;;;;;6.40;1.98;;;;;;;16.73;42.23;102403.78;5053402;28;20036;-40
2023/05/31 01:05:57;;;;;;;6.13;2.05;;;;;;;16.73;42.46;102404.63;5037828;28;20465;-39
2023/05/31 01:08:22;;;;;;;5.88;1.85;;;;;;;16.64;42.66;102413.13;5058701;28;20032;-39
2023/05/31 01:10:51;;;;;;;4.97;1.88;;;;;;;16.64;42.48;102407.81;5075212;28;20051;-40
2023/05/31 01:13:25;;;;;;;8.52;2.28;;;;;;;16.63;42.59;102415.88;5060833;28;20469;-41
2023/05/31 01:16:02;;;;;;;6.22;2.10;;;;;;;16.66;42.63;102421.00;5060655;28;20043;-40
2023/05/31 01:18:54;;;;;;;8.95;1.60;;;;;;;16.59;43.01;102425.81;5054564;28;20056;-39
2023/05/31 01:21:32;;;;;;;4.32;1.73;;;;;;;16.51;42.83;102417.44;5074137;28;20055;-39
2023/05/31 01:24:20;;;;;;;4.05;1.60;;;;;;;16.48;42.86;102428.22;5072396;28;20027;-39
2023/05/31 01:26:49;;;;;;;6.68;1.90;;;;;;;16.40;43.11;102424.22;5054552;28;20036;-39
2023/05/31 01:29:20;;;;;;;7.25;2.20;;;;;;;16.38;43.29;102422.56;5044776;28;20030;-39
2023/05/31 01:31:47;;;;;;;6.47;1.53;;;;;;;16.30;43.30;102433.63;5054530;28;20394;-40
2023/05/31 01:34:12;;;;;;;5.30;2.13;;;;;;;16.25;43.39;102430.38;5059946;28;20024;-41
2023/05/31 01:36:38;;;;;;;7.95;1.67;;;;;;;16.18;43.47;102428.97;5056917;28;20066;-39
2023/05/31 01:39:05;;;;;;;8.73;2.08;;;;;;;16.10;43.58;102426.75;5061695;28;20020;-40
2023/05/31 01:41:37;;;;;;;5.38;1.95;;;;;;;16.20;43.62;102429.75;5062170;28;20032;-39
2023/05/31 01:44:04;;;;;;;7.13;1.85;;;;;;;16.20;43.41;102421.78;5068062;28;20049;-40
2023/05/31 01:46:29;;;;;;;6.85;2.25;;;;;;;16.20;43.28;102424.44;5037686;28;20042;-39
2023/05/31 01:48:57;;;;;;;9.02;2.05;;;;;;;16.19;43.44;102425.38;5027522;28;20044;-40
2023/05/31 01:51:24;;;;;;;4.90;1.92;;;;;;;16.14;43.72;102425.66;5072723;28;20030;-40
2023/05/31 01:53:52;;;;;;;5.72;1.80;;;;;;;16.13;43.84;102418.63;5072915;28;20039;-43
2023/05/31 01:56:20;;;;;;;4.95;1.70;;;;;;;16.09;44.10;102417.94;5054693;28;20039;-43
2023/05/31 01:58:49;;;;;;;12.38;2.22;;;;;;;16.07;44.15;102411.84;5056764;28;20122;-41
2023/05/31 02:01:18;;;;;;;5.20;2.08;;;;;;;16.03;44.18;102412.09;5070070;28;20020;-39
2023/05/31 02:03:44;;;;;;;6.70;2.05;;;;;;;16.02;44.20;102408.56;5074264;28;20022;-39
2023/05/31 02:06:18;;;;;;;6.40;2.17;;;;;;;16.05;44.40;102405.75;5066009;28;20019;-40
2023/05/31 02:08:44;;;;;;;4.22;2.00;;;;;;;16.03;44.35;102407.63;5060510;28;20028;-40
2023/05/31 02:11:10;;;;;;;9.27;2.35;;;;;;;16.02;44.38;102402.41;5060292;28;20050;-39
2023/05/31 02:13:35;;;;;;;4.72;2.13;;;;;;;16.03;44.65;102406.78;5063753;28;20501;-40
2023/05/31 02:16:03;;;;;;;7.70;2.10;;;;;;;16.03;44.57;102415.59;5085055;28;20527;-39
2023/05/31 02:18:29;;;;;;;5.57;4.07;;;;;;;16.02;44.55;102405.91;5063752;28;20028;-39
2023/05/31 02:20:54;;;;;;;6.55;1.73;;;;;;;15.99;44.65;102412.25;5066118;28;20502;-40
2023/05/31 02:23:20;;;;;;;4.63;2.00;;;;;;;15.92;45.03;102405.56;5053611;28;20062;-40
2023/05/31 02:25:47;;;;;;;3.58;1.88;;;;;;;15.88;45.17;102413.78;5062310;28;20079;-40
2023/05/31 02:28:13;;;;;;;7.28;2.10;;;;;;;15.82;45.13;102407.81;5032970;28;20033;-40
2023/05/31 02:30:40;;;;;;;6.43;2.00;;;;;;;15.81;45.21;102419.38;5066053;28;20498;-40
2023/05/31 02:33:07;;;;;;;8.40;1.85;;;;;;;15.79;45.05;102412.44;5067930;28;20024;-39
2023/05/31 02:35:33;;;;;;;5.28;2.25;;;;;;;15.76;45.43;102410.81;5064487;28;20118;-40
2023/05/31 02:37:58;;;;;;;22.63;3.70;;;;;;;15.76;45.37;102410.81;5060979;28;20441;-39
2023/05/31 02:40:24;;;;;;;8.23;2.28;;;;;;;15.78;45.26;102419.56;5062061;28;20032;-39
2023/05/31 02:42:50;;;;;;;10.18;2.08;;;;;;;15.77;45.32;102409.00;5078007;28;20035;-39
2023/05/31 02:45:15;;;;;;;5.93;1.50;;;;;;;15.72;45.36;102409.25;5058011;28;20024;-40
2023/05/31 02:47:41;;;;;;;5.25;1.75;;;;;;;15.72;45.53;102413.72;5050711;28;20032;-39
2023/05/31 02:50:08;;;;;;;7.57;2.00;;;;;;;15.69;45.57;102414.72;5050867;28;20393;-40
2023/05/31 02:52:34;;;;;;;3.88;1.85;;;;;;;15.68;45.55;102407.69;5064025;28;20028;-40
2023/05/31 02:55:00;;;;;;;6.60;2.17;;;;;;;15.68;45.68;102410.34;5080218;28;20102;-39
2023/05/31 02:57:25;;;;;;;4.25;1.80;;;;;;;15.65;45.85;102399.91;5061298;28;20115;-40
2023/05/31 02:59:56;;;;;;;5.72;2.22;;;;;;;15.66;46.21;102409.56;5036568;28;20033;-39
2023/05/31 03:02:21;;;;;;;12.18;2.78;;;;;;;15.57;46.02;102404.75;5064064;28;20024;-43
2023/05/31 03:04:48;;;;;;;5.95;2.40;;;;;;;15.49;46.53;102406.03;5067181;28;20387;-39
2023/05/31 03:07:13;;;;;;;7.15;2.88;;;;;;;15.53;46.36;102402.25;5044862;28;20067;-39
2023/05/31 03:09:39;;;;;;;5.97;1.95;;;;;;;15.54;46.42;102406.63;5045031;28;20072;-40
2023/05/31 03:12:05;;;;;;;8.35;2.65;;;;;;;15.54;46.39;102403.97;5053369;28;20016;-38
2023/05/31 03:14:31;;;;;;;8.57;3.05;;;;;;;15.51;46.56;102392.69;5064263;28;20138;-41
2023/05/31 03:16:57;;;;;;;6.65;2.22;;;;;;;15.45;46.65;102393.84;5044202;28;20127;-40
2023/05/31 03:19:22;;;;;;;10.15;2.38;;;;;;;15.39;47.08;102404.78;5078830;28;20059;-39
2023/05/31 03:21:48;;;;;;;9.65;2.13;;;;;;;15.44;46.92;102400.09;5064359;28;20082;-38
2023/05/31 03:24:13;;;;;;;5.50;2.03;;;;;;;15.47;46.81;102402.59;5050540;28;20032;-39
2023/05/31 03:26:41;;;;;;;7.68;2.63;;;;;;;15.49;46.75;102390.13;5049899;28;20032;-39
2023/05/31 03:29:06;;;;;;;5.85;2.67;;;;;;;15.47;47.02;102394.63;5055101;28;20047;-39
2023/05/31 03:31:32;;;;;;;18.00;6.50;;;;;;;15.47;47.06;102391.97;5062864;28;20036;-39
2023/05/31 03:33:58;;;;;;;5.70;2.28;;;;;;;15.45;47.12;102385.91;5063686;28;20083;-38
2023/05/31 03:36:23;;;;;;;6.53;2.38;;;;;;;15.49;46.99;102386.59;5029123;28;20040;-40
2023/05/31 03:38:49;;;;;;;6.13;2.08;;;;;;;15.51;47.10;102388.22;5072347;28;20040;-40
2023/05/31 03:41:14;;;;;;;8.43;2.47;;;;;;;15.50;46.89;102388.31;5083677;28;20036;-39
2023/05/31 03:43:40;;;;;;;10.20;3.33;;;;;;;15.47;46.92;102388.47;5043827;28;20397;-40
2023/05/31 03:46:05;;;;;;;9.15;2.92;;;;;;;15.46;46.91;102392.91;5050637;28;20315;-40
2023/05/31 03:48:31;;;;;;;8.80;3.58;;;;;;;15.47;47.21;102399.94;5047318;28;20039;-39
2023/05/31 03:50:56;;;;;;;8.23;2.80;;;;;;;15.48;47.13;102395.47;5041285;28;20043;-39
2023/05/31 03:53:22;;;;;;;7.65;2.65;;;;;;;15.50;47.43;102393.59;5036643;28;20101;-38
2023/05/31 03:55:48;;;;;;;4.75;2.22;;;;;;;15.49;47.57;102398.06;5061466;28;20023;-40
2023/05/31 03:58:14;;;;;;;6.78;2.03;;;;;;;15.47;47.59;102401.72;5080240;28;20078;-41
2023/05/31 04:00:41;;;;;;;8.52;4.30;;;;;;;15.44;47.73;102393.91;5065186;28;20472;-39
2023/05/31 04:03:06;;;;;;;9.10;3.40;;;;;;;15.45;47.88;102408.91;5062822;28;20611;-42
2023/05/31 04:05:32;;;;;;;9.52;2.85;;;;;;;15.46;48.01;102402.66;5073885;28;20061;-39
2023/05/31 04:07:59;;;;;;;9.13;4.10;;;;;;;15.49;47.91;102411.34;5034841;28;20032;-40
2023/05/31 04:10:24;;;;;;;9.40;4.80;;;;;;;15.48;47.92;102412.28;5078087;28;20020;-41
2023/05/31 04:12:50;;;;;;;11.38;4.18;;;;;;;15.48;48.10;102401.66;5066676;28;20524;-40
2023/05/31 04:15:15;;;;;;;7.53;2.50;;;;;;;15.48;48.10;102400.78;5063464;28;20028;-38
2023/05/31 04:17:40;;;;;;;11.13;3.03;;;;;;;15.47;48.34;102407.91;5062402;28;20155;-40
2023/05/31 04:20:07;;;;;;;6.90;2.83;;;;;;;15.49;48.37;102400.72;5062716;28;20505;-39
2023/05/31 04:22:35;;;;;;;8.45;2.35;;;;;;;15.51;48.30;102400.63;5078978;28;20433;-39
2023/05/31 04:25:01;;;;;;;7.80;2.55;;;;;;;15.51;48.42;102400.63;5066027;28;20024;-38
2023/05/31 04:27:27;;;;;;;12.13;3.38;;;;;;;15.52;48.39;102389.94;5050065;28;20367;-40
2023/05/31 04:29:53;;;;;;;9.00;3.03;;;;;;;15.52;48.49;102389.09;5048034;28;20032;-39
2023/05/31 04:32:21;;;;;;;7.78;2.45;;;;;;;15.56;48.63;102398.59;5036791;28;20032;-39
2023/05/31 04:34:47;;;;;;;5.65;2.60;;;;;;;15.60;48.58;102393.97;5046917;28;20042;-39
2023/05/31 04:37:13;;;;;;;7.75;2.75;;;;;;;15.60;48.62;102394.81;5060167;28;20036;-43
2023/05/31 04:39:38;;;;;;;7.25;3.00;;;;;;;15.62;48.85;102394.78;5068265;28;20031;-39
2023/05/31 04:42:05;;;;;;;6.25;2.70;;;;;;;15.66;48.78;102399.81;5063208;28;20032;-39
2023/05/31 04:44:31;;;;;;;14.38;4.25;;;;;;;15.69;48.56;102398.78;5080615;28;20036;-38
2023/05/31 04:46:57;;;;;;;14.48;6.38;;;;;;;15.73;48.46;102389.75;5045139;28;20408;-42
2023/05/31 04:49:24;;;;;;;5.90;2.60;;;;;;;15.72;48.51;102398.63;5050297;28;20023;-39
2023/05/31 04:51:49;;;;;;;6.18;2.63;;;;;;;15.73;48.60;102395.03;5044094;28;20478;-39
2023/05/31 04:54:15;;;;;;;8.20;2.90;;;;;;;15.77;48.57;102387.78;5032477;28;20141;-39
2023/05/31 04:56:40;;;;;;;8.82;3.50;;;;;;;15.78;48.46;102386.84;5048691;28;20037;-39
2023/05/31 04:59:06;;;;;;;8.45;2.50;;;;;;;15.76;48.45;102383.41;5066196;28;20043;-39
2023/05/31 05:01:32;;;;;;;5.85;2.60;;;;;;;15.77;48.87;102383.34;5060941;28;21754;-39
2023/05/31 05:03:57;;;;;;;7.82;2.85;;;;;;;15.80;48.58;102391.13;5068081;28;20520;-39
2023/05/31 05:06:23;;;;;;;6.43;2.00;;;;;;;15.74;48.74;102391.47;5059518;28;20016;-39
2023/05/31 05:08:48;;;;;;;7.38;2.58;;;;;;;15.74;48.90;102380.84;5062112;28;20047;-39
2023/05/31 05:11:16;;;;;;;9.27;2.97;;;;;;;15.82;48.71;102378.63;5079937;28;20679;-39
2023/05/31 05:13:42;;;;;;;8.95;2.53;;;;;;;15.88;48.77;102381.91;5061318;28;20028;-39
2023/05/31 05:16:08;;;;;;;8.57;2.95;;;;;;;15.94;48.78;102384.25;5059287;28;20510;-39
2023/05/31 05:18:33;;;;;;;5.22;2.13;;;;;;;15.98;48.60;102375.16;5034021;28;20060;-39
2023/05/31 05:20:59;;;;;;;6.38;2.22;;;;;;;16.04;48.41;102389.91;5059637;28;20533;-39
2023/05/31 05:23:27;;;;;;;4.32;2.30;;;;;;;16.09;48.43;102385.19;5042337;28;20055;-39
2023/05/31 05:25:53;;;;;;;7.43;2.45;;;;;;;16.10;48.14;102382.47;5050100;28;20024;-39
2023/05/31 05:28:18;;;;;;;4.60;1.50;;;;;;;16.13;48.38;102382.28;5057089;28;20032;-39
2023/05/31 05:30:44;;;;;;;7.45;2.50;;;;;;;16.14;48.18;102384.00;5055637;28;20077;-39
2023/05/31 05:33:10;;;;;;;6.88;2.08;;;;;;;16.14;48.24;102380.50;5051797;28;20107;-39
2023/05/31 05:35:35;;;;;;;6.70;2.55;;;;;;;16.15;48.34;102377.75;5059855;28;20115;-39
2023/05/31 05:38:01;;;;;;;13.18;3.08;;;;;;;16.24;48.03;102375.53;5075370;28;20127;-40
2023/05/31 05:40:29;;;;;;;8.15;2.63;;;;;;;16.31;48.24;102374.22;5059486;28;20051;-39
2023/05/31 05:42:54;;;;;;;8.60;3.13;;;;;;;16.36;48.05;102380.16;5064375;28;20172;-39
2023/05/31 05:45:20;;;;;;;7.63;2.65;;;;;;;16.41;48.00;102370.09;5041184;28;20478;-39
2023/05/31 05:47:45;;;;;;;7.15;2.80;;;;;;;16.48;47.91;102380.41;5046382;28;20123;-39
2023/05/31 05:50:12;;;;;;;10.98;4.10;;;;;;;16.52;48.03;102372.16;5050054;28;20032;-38
2023/05/31 05:52:38;;;;;;;11.30;3.08;;;;;;;16.56;48.00;102378.19;5078680;28;20032;-39
2023/05/31 05:55:04;;;;;;;9.20;2.63;;;;;;;16.57;48.10;102370.09;5050471;28;20047;-39
2023/05/31 05:57:30;;;;;;;95.00;48.90;;;;;;;16.65;47.94;102371.44;5060772;28;20642;-39
2023/05/31 05:59:56;;;;;;;20.83;8.63;;;;;;;16.67;48.23;102370.44;5077813;28;20502;-39
2023/05/31 06:02:22;;;;;;;8.48;3.72;;;;;;;16.75;47.82;102370.84;5045349;28;20376;-39
2023/05/31 06:04:48;;;;;;;11.20;3.08;;;;;;;16.80;47.76;102369.72;5055938;28;20532;-44
2023/05/31 06:07:14;;;;;;;11.90;3.47;;;;;;;16.82;47.72;102370.50;5060822;28;20111;-39
2023/05/31 06:09:39;;;;;;;9.70;2.85;;;;;;;16.81;48.00;102369.63;5064775;28;20566;-40
2023/05/31 06:12:06;;;;;;;11.52;4.00;;;;;;;16.86;47.90;102366.72;5065781;28;20073;-40
2023/05/31 06:14:32;;;;;;;12.50;5.32;;;;;;;16.93;47.98;102362.72;5046532;28;20036;-40
2023/05/31 06:16:57;;;;;;;10.82;4.25;;;;;;;16.99;47.88;102359.75;5039932;28;20059;-39
2023/05/31 06:19:23;;;;;;;8.93;3.83;;;;;;;17.06;47.80;102366.41;5049883;28;20028;-40
2023/05/31 06:21:49;;;;;;;10.38;3.40;;;;;;;17.15;47.68;102364.16;5045021;28;20093;-39
2023/05/31 06:24:14;;;;;;;7.90;3.28;;;;;;;17.19;47.65;102357.69;5048666;28;20032;-39
2023/05/31 06:26:40;;;;;;;6.82;3.58;;;;;;;17.23;47.64;102361.03;5054095;28;20061;-40
2023/05/31 06:29:05;;;;;;;7.22;2.85;;;;;;;17.26;47.64;102364.34;5077337;28;20024;-38
2023/05/31 06:31:31;;;;;;;6.88;2.63;;;;;;;17.28;47.50;102365.13;5035467;28;20122;-40
2023/05/31 06:33:56;;;;;;;7.47;2.80;;;;;;;17.27;47.71;102358.09;5062452;28;20069;-39
2023/05/31 06:36:22;;;;;;;7.35;2.97;;;;;;;17.29;47.66;102361.53;5042167;28;20067;-39
2023/05/31 06:38:47;;;;;;;12.50;2.88;;;;;;;17.34;47.73;102355.91;5052304;28;20403;-39
2023/05/31 06:41:13;;;;;;;5.03;2.13;;;;;;;17.45;47.34;102349.94;5056190;28;20036;-39
2023/05/31 06:43:38;;;;;;;6.72;2.30;;;;;;;17.52;47.33;102349.47;5037308;28;20032;-40
2023/05/31 06:46:07;;;;;;;7.10;2.03;;;;;;;17.61;47.37;102350.72;5044781;28;20037;-38
2023/05/31 06:48:32;;;;;;;8.52;2.30;;;;;;;17.68;47.33;102349.34;5058912;28;20398;-39
2023/05/31 06:50:58;;;;;;;4.25;2.08;;;;;;;17.71;47.19;102350.97;5056687;28;20036;-39
2023/05/31 06:53:23;;;;;;;6.57;2.22;;;;;;;17.78;47.25;102351.44;5060740;28;20025;-40
2023/05/31 06:55:49;;;;;;;7.70;2.72;;;;;;;17.82;47.21;102347.63;5042554;28;20123;-39
2023/05/31 06:58:16;;;;;;;5.75;2.50;;;;;;;17.85;47.26;102347.44;5044324;28;20032;-40
2023/05/31 07:00:42;;;;;;;9.30;2.38;;;;;;;17.92;47.29;102351.41;5071955;28;20059;-39
2023/05/31 07:03:07;;;;;;;6.28;1.85;;;;;;;17.98;47.11;102350.22;5049000;28;20575;-40
2023/05/31 07:05:32;;;;;;;7.18;2.13;;;;;;;18.07;47.04;102352.28;5050032;28;20036;-39
2023/05/31 07:07:58;;;;;;;4.38;1.92;;;;;;;18.12;47.01;102349.31;5046846;28;20044;-38
2023/05/31 07:10:23;;;;;;;5.90;1.90;;;;;;;18.16;46.96;102345.50;5050945;28;20553;-39
2023/05/31 07:12:50;;;;;;;5.80;2.42;;;;;;;18.24;47.04;102342.34;5040748;28;20044;-38
2023/05/31 07:15:16;;;;;;;6.05;2.25;;;;;;;18.24;46.90;102337.88;5041196;28;20036;-39
2023/05/31 07:17:41;;;;;;;7.28;2.22;;;;;;;18.28;46.90;102334.06;5043678;28;20028;-39
2023/05/31 07:20:08;;;;;;;11.93;3.75;;;;;;;18.33;46.84;102335.56;5045247;28;20383;-40
2023/05/31 07:22:34;;;;;;;7.25;2.60;;;;;;;18.36;46.55;102341.53;5046208;28;20144;-40
2023/05/31 07:24:59;;;;;;;4.20;2.00;;;;;;;18.43;46.48;102336.66;5048242;28;20115;-38
2023/05/31 07:27:25;;;;;;;9.30;2.53;;;;;;;18.47;46.28;102324.84;5051967;28;20422;-39
2023/05/31 07:29:50;;;;;;;5.25;2.13;;;;;;;18.51;46.20;102318.38;5046918;28;20146;-39
2023/05/31 07:32:16;;;;;;;12.10;4.10;;;;;;;18.57;46.14;102323.28;5043864;28;20044;-40
2023/05/31 07:34:42;;;;;;;8.35;2.97;;;;;;;18.63;46.18;102327.34;5052108;28;20525;-39
2023/05/31 07:37:07;;;;;;;8.45;2.08;;;;;;;18.66;45.95;102327.13;5045205;28;20110;-39
2023/05/31 07:39:32;;;;;;;8.82;2.47;;;;;;;18.70;46.04;102330.44;5060578;28;20032;-39
2023/05/31 07:41:58;;;;;;;11.13;2.47;;;;;;;18.71;45.82;102322.34;5056594;28;20379;-40
2023/05/31 07:44:25;;;;;;;6.20;2.45;;;;;;;18.74;45.55;102323.94;5073276;28;20384;-39
2023/05/31 07:46:50;;;;;;;5.75;2.13;;;;;;;18.74;45.74;102324.81;5042382;28;20482;-40
2023/05/31 07:49:16;;;;;;;10.60;3.15;;;;;;;18.76;45.29;102318.50;5048233;28;20035;-40
2023/05/31 07:51:41;;;;;;;8.70;2.10;;;;;;;18.78;45.53;102319.25;5042911;28;20031;-39
2023/05/31 07:54:06;;;;;;;7.15;2.50;;;;;;;18.79;45.37;102313.84;5048668;28;20554;-40
2023/05/31 07:56:32;;;;;;;9.13;2.15;;;;;;;18.83;45.34;102312.66;5052050;28;20032;-40
2023/05/31 07:58:57;;;;;;;6.50;2.30;;;;;;;18.89;45.05;102306.06;5059237;28;20394;-39
2023/05/31 08:01:23;;;;;;;8.93;2.42;;;;;;;18.95;44.81;102311.00;5057440;28;20032;-39
2023/05/31 08:03:50;;;;;;;3.95;2.15;;;;;;;19.01;44.67;102309.72;5056039;28;20575;-40
2023/05/31 08:06:17;;;;;;;6.65;2.33;;;;;;;19.06;44.44;102304.09;5049233;28;20027;-40
2023/05/31 08:08:43;;;;;;;6.78;1.70;;;;;;;19.10;44.22;102297.56;5058492;28;20033;-39
2023/05/31 08:11:09;;;;;;;5.75;1.50;;;;;;;19.16;44.14;102292.66;5058725;28;20024;-40
2023/05/31 08:13:34;;;;;;;4.10;1.67;;;;;;;19.18;43.99;102284.56;5079168;28;20020;-39
2023/05/31 08:16:00;;;;;;;5.70;2.00;;;;;;;19.21;44.04;102286.16;5049292;28;20035;-40
2023/05/31 08:18:25;;;;;;;9.23;3.90;;;;;;;19.22;44.24;102286.03;5060501;28;20024;-39
2023/05/31 08:20:51;;;;;;;6.53;2.00;;;;;;;19.22;44.15;102280.69;5073507;28;20054;-39
2023/05/31 08:23:20;;;;;;;8.75;3.00;;;;;;;19.23;44.14;102282.41;5061323;28;20032;-40
2023/05/31 08:25:46;;;;;;;14.50;6.05;;;;;;;19.25;44.30;102276.97;5058034;28;20052;-39
2023/05/31 08:28:12;;;;;;;9.05;3.17;;;;;;;19.30;44.20;102277.47;5079523;28;20498;-40
2023/05/31 08:30:38;;;;;;;5.20;2.03;;;;;;;19.37;44.06;102283.22;5065513;28;20039;-40
2023/05/31 08:33:03;;;;;;;6.95;2.05;;;;;;;19.42;44.08;102287.31;5049664;28;20024;-41
2023/05/31 08:35:29;;;;;;;9.77;3.30;;;;;;;19.45;43.82;102276.38;5066080;28;20055;-40
2023/05/31 08:37:56;;;;;;;6.68;1.73;;;;;;;19.50;43.97;102271.59;5048895;28;20039;-39
2023/05/31 08:40:22;;;;;;;5.80;2.17;;;;;;;19.54;43.88;102271.38;5057067;28;20043;-40
2023/05/31 08:42:56;;;;;;;7.15;1.77;;;;;;;19.60;43.20;102282.47;5072854;28;20036;-39
2023/05/31 08:45:22;;;;;;;1.88;0.85;;;;;;;19.60;43.00;102285.13;5068401;28;20028;-39
2023/05/31 08:48:13;;;;;;;5.93;1.48;;;;;;;19.64;41.45;102281.28;5067061;28;20089;-40
2023/05/31 08:50:42;;;;;;;7.03;1.75;;;;;;;19.65;42.17;102276.78;5077991;28;20028;-39
2023/05/31 08:53:08;;;;;;;5.63;2.78;;;;;;;19.65;41.80;102282.13;5074296;28;20024;-41
2023/05/31 08:55:36;;;;;;;3.80;1.85;;;;;;;19.69;41.83;102275.59;5059973;28;20051;-39
2023/05/31 08:58:02;;;;;;;5.47;2.55;;;;;;;19.67;41.54;102274.84;5083366;28;20474;-40
2023/05/31 09:00:29;;;;;;;6.35;2.42;;;;;;;19.64;41.69;102273.28;5064345;28;20032;-39
2023/05/31 09:02:55;;;;;;;3.55;1.60;;;;;;;19.67;41.72;102272.19;5066482;28;20028;-41
2023/05/31 09:05:20;;;;;;;6.22;1.80;;;;;;;19.71;41.78;102263.00;5060217;28;20482;-40
2023/05/31 09:07:49;;;;;;;6.15;1.50;;;;;;;19.78;41.73;102261.56;5062577;28;20159;-40
2023/05/31 09:10:15;;;;;;;6.85;1.70;;;;;;;19.88;41.71;102258.28;5066961;28;20101;-40
2023/05/31 09:12:41;;;;;;;6.10;1.90;;;;;;;19.95;41.72;102251.50;5079402;28;20020;-39
2023/05/31 09:15:08;;;;;;;3.53;1.40;;;;;;;20.00;41.79;102251.16;5083070;28;20043;-40
2023/05/31 09:17:33;;;;;;;4.57;2.05;;;;;;;20.04;41.65;102260.66;5066311;28;20028;-40
2023/05/31 09:20:00;;;;;;;4.13;1.45;;;;;;;20.14;42.14;102255.47;5064899;28;20489;-41
2023/05/31 09:22:26;;;;;;;7.68;1.40;;;;;;;20.16;41.97;102258.91;5064402;28;20030;-40
2023/05/31 09:24:59;;;;;;;6.07;1.52;;;;;;;20.22;41.55;102261.09;5063896;28;20036;-40
2023/05/31 09:27:38;;;;;;;5.53;1.75;;;;;;;20.24;41.85;102251.13;5075673;28;20108;-39
2023/05/31 09:30:08;;;;;;;10.13;1.90;;;;;;;20.30;41.55;102252.50;5029748;28;20028;-39
2023/05/31 09:32:35;;;;;;;4.25;1.75;;;;;;;20.36;41.73;102255.56;5062115;28;20032;-39
2023/05/31 09:35:15;;;;;;;3.80;1.15;;;;;;;20.46;41.30;102242.34;5081769;28;20031;-40
2023/05/31 09:37:48;;;;;;;5.78;1.90;;;;;;;20.50;41.05;102250.97;5080545;28;20032;-39
2023/05/31 09:40:24;;;;;;;4.72;1.73;;;;;;;20.50;41.29;102246.50;5063810;28;21102;-38
2023/05/31 09:42:51;;;;;;;4.47;1.88;;;;;;;20.53;41.32;102248.94;5061691;28;20032;-39
2023/05/31 09:45:17;;;;;;;6.93;1.83;;;;;;;20.53;41.28;102240.06;5066328;28;20123;-40
2023/05/31 09:47:44;;;;;;;4.30;1.63;;;;;;;20.60;41.07;102245.78;5079286;28;20120;-39
2023/05/31 09:50:20;;;;;;;5.07;2.28;;;;;;;20.67;41.04;102239.00;5078104;28;20024;-40
2023/05/31 09:52:47;;;;;;;5.45;1.90;;;;;;;20.72;40.79;102239.50;5073649;28;20490;-40
2023/05/31 09:55:15;;;;;;;3.17;1.50;;;;;;;20.81;40.69;102237.94;5050398;28;20050;-39
2023/05/31 09:57:46;;;;;;;4.93;1.50;;;;;;;20.88;40.19;102241.00;5044484;28;20036;-40
2023/05/31 10:00:16;;;;;;;5.95;1.25;;;;;;;20.92;40.15;102243.34;5054971;28;20036;-40
2023/05/31 10:02:43;;;;;;;3.50;1.20;;;;;;;20.98;39.77;102236.66;5054587;28;20533;-40
2023/05/31 10:05:11;;;;;;;3.30;1.17;;;;;;;21.02;39.59;102230.94;5048269;28;20035;-40
2023/05/31 10:07:38;;;;;;;5.10;1.20;;;;;;;21.04;38.76;102227.28;5053543;28;20031;-39
2023/05/31 10:10:05;;;;;;;2.25;0.95;;;;;;;21.08;38.74;102231.44;5059998;28;20119;-40
2023/05/31 10:12:34;;;;;;;8.07;3.38;;;;;;;21.11;38.42;102223.13;5058946;28;20035;-40
2023/05/31 10:15:02;;;;;;;2.97;0.98;;;;;;;21.15;37.92;102230.81;5075499;28;20028;-41
2023/05/31 10:17:33;;;;;;;5.55;1.35;;;;;;;21.22;37.50;102235.66;5077435;28;20363;-40
2023/05/31 10:20:04;;;;;;;1.80;0.70;;;;;;;21.24;37.63;102223.88;5039700;28;20483;-39
2023/05/31 10:22:36;;;;;;;3.20;0.90;;;;;;;21.25;37.35;102225.56;5076240;28;20414;-40
2023/05/31 10:25:09;;;;;;;4.00;1.40;;;;;;;21.28;36.82;102245.88;5054471;28;20028;-40
2023/05/31 10:27:37;;;;;;;3.90;1.10;;;;;;;21.31;37.31;102218.88;5056900;28;20199;-39
2023/05/31 10:30:04;;;;;;;2.28;1.10;;;;;;;21.35;37.23;102230.19;5078354;28;20032;-40
2023/05/31 10:32:33;;;;;;;2.78;0.82;;;;;;;21.38;36.25;102224.59;5046019;28;20024;-39
2023/05/31 10:34:59;;;;;;;3.10;0.98;;;;;;;21.40;36.16;102230.69;5066786;28;20024;-41
2023/05/31 10:37:25;;;;;;;4.15;0.90;;;;;;;21.41;35.39;102240.38;5063747;28;20027;-39
2023/05/31 10:40:05;;;;;;;4.57;0.88;;;;;;;21.44;33.79;102219.59;5059066;28;20034;-39
2023/05/31 10:42:40;;;;;;;2.30;0.88;;;;;;;21.48;34.13;102220.19;5066009;28;20074;-38
2023/05/31 10:45:16;;;;;;;3.08;1.17;;;;;;;21.50;34.13;102214.69;5061477;28;20940;-39
2023/05/31 10:47:50;;;;;;;3.88;1.00;;;;;;;21.54;33.58;102211.66;5038697;28;20036;-40
2023/05/31 10:50:20;;;;;;;2.58;1.15;;;;;;;21.56;33.79;102212.38;5076862;28;20523;-40
2023/05/31 10:53:07;;;;;;;3.42;1.20;;;;;;;21.59;34.24;102192.53;5058510;28;20032;-39
2023/05/31 10:55:41;;;;;;;3.05;1.27;;;;;;;21.59;34.38;102206.75;5061115;28;20024;-40
2023/05/31 10:58:07;;;;;;;12.68;4.68;;;;;;;21.59;34.86;102196.03;5069130;28;20038;-41
2023/05/31 11:00:41;;;;;;;3.17;1.20;;;;;;;21.59;32.91;102190.69;5064343;28;20032;-40
2023/05/31 11:03:06;;;;;;;4.43;1.50;;;;;;;21.59;33.34;102185.34;5081036;28;20378;-39
2023/05/31 11:05:33;;;;;;;10.23;2.97;;;;;;;21.66;33.64;102190.22;5032449;28;20032;-40
2023/05/31 11:07:58;;;;;;;2.88;0.90;;;;;;;21.70;33.35;102180.97;5064019;28;20029;-40
2023/05/31 11:10:25;;;;;;;4.05;1.23;;;;;;;21.75;33.92;102174.25;5065546;28;20176;-40
2023/05/31 11:12:51;;;;;;;4.40;1.30;;;;;;;21.80;33.48;102173.00;5073743;28;20031;-44
2023/05/31 11:15:16;;;;;;;3.97;1.10;;;;;;;21.81;33.51;102178.25;5053083;28;20051;-41
2023/05/31 11:17:53;;;;;;;3.75;1.30;;;;;;;21.92;33.42;102172.00;5045629;28;20418;-39
2023/05/31 11:20:19;;;;;;;4.68;1.48;;;;;;;21.95;33.52;102170.88;5060288;28;20043;-40
2023/05/31 11:22:45;;;;;;;3.53;1.40;;;;;;;22.03;33.56;102163.03;5059372;28;20048;-42